createdAt,value
2019-04-14T00:00:33.767Z,1.00
2019-04-14T00:03:04.464Z,1.00
2019-04-14T00:05:34.418Z,1.00
2019-04-14T00:08:06.669Z,99.90
2019-04-14T00:10:36.072Z,99.90
2019-04-14T00:13:04.929Z,99.90
2019-04-14T00:15:39.534Z,99.90
2019-04-14T00:18:05.460Z,99.90
2019-04-14T00:20:35.783Z,99.90
2019-04-14T00:23:04.797Z,99.90
2019-04-14T00:25:34.706Z,99.90
2019-04-14T00:28:05.123Z,99.90
2019-04-14T00:30:34.064Z,99.90
2019-04-14T00:33:08.461Z,99.90
2019-04-14T00:35:54.019Z,99.90
2019-04-14T00:38:24.419Z,99.90
2019-04-14T00:41:09.877Z,99.90
2019-04-14T00:43:43.925Z,99.90
2019-04-14T00:46:21.188Z,99.90
2019-04-14T00:48:50.068Z,99.90
2019-04-14T00:51:19.833Z,99.90
2019-04-14T00:53:49.147Z,99.90
2019-04-14T00:56:17.967Z,99.90
2019-04-14T00:58:47.544Z,1.00
2019-04-14T01:01:17.358Z,99.90
2019-04-14T01:03:46.341Z,99.90
2019-04-14T01:06:16.325Z,1.00
2019-04-14T01:08:46.713Z,1.00
2019-04-14T01:11:15.970Z,99.90
2019-04-14T01:13:45.964Z,99.90
2019-04-14T01:16:19.098Z,1.00
2019-04-14T01:18:45.429Z,99.90
2019-04-14T01:21:15.244Z,1.00
2019-04-14T01:23:44.133Z,99.90
2019-04-14T01:26:13.878Z,99.90
2019-04-14T01:28:43.934Z,13.40
2019-04-14T01:31:13.982Z,1.00
2019-04-14T01:33:42.822Z,99.90
2019-04-14T01:36:12.673Z,99.90
2019-04-14T01:38:42.723Z,1.00
2019-04-14T01:41:12.732Z,1.00
2019-04-14T01:43:42.730Z,70.40
2019-04-14T01:46:17.867Z,75.40
2019-04-14T01:48:43.137Z,99.90
2019-04-14T01:51:17.782Z,99.90
2019-04-14T01:53:51.037Z,99.90
2019-04-14T01:56:25.186Z,1.00
2019-04-14T01:58:58.494Z,1.00
2019-04-14T02:01:32.473Z,1.00
2019-04-14T02:04:01.296Z,1.00
2019-04-14T02:06:31.270Z,1.00
2019-04-14T02:09:01.177Z,1.00
2019-04-14T02:11:31.269Z,1.00
2019-04-14T02:14:01.481Z,1.00
2019-04-14T02:16:37.879Z,1.00
2019-04-14T02:19:02.287Z,1.00
2019-04-14T02:21:43.503Z,1.00
2019-04-14T02:24:13.444Z,1.00
2019-04-14T02:26:43.717Z,1.00
2019-04-14T02:29:12.831Z,1.00
2019-04-14T02:32:13.846Z,1.00
2019-04-14T02:34:42.132Z,1.00
2019-04-14T02:37:15.656Z,1.00
2019-04-14T02:39:38.632Z,1.00
2019-04-14T02:42:19.421Z,1.00
2019-04-14T02:47:36.361Z,1.00
2019-04-14T02:49:43.960Z,1.00
2019-04-14T02:52:12.115Z,1.00
2019-04-14T02:57:16.933Z,8.90
2019-04-14T02:59:45.155Z,7.80
2019-04-14T03:02:22.889Z,6.90
2019-04-14T03:04:44.509Z,3.60
2019-04-14T03:07:16.612Z,11.90
2019-04-14T03:09:47.016Z,11.90
2019-04-14T03:12:16.889Z,16.00
2019-04-14T03:14:49.295Z,27.40
2019-04-14T03:19:56.452Z,25.00
2019-04-14T03:22:33.119Z,25.50
2019-04-14T03:25:03.076Z,25.80
2019-04-14T03:30:46.198Z,39.70
2019-04-14T03:35:58.674Z,39.20
2019-04-14T03:40:21.702Z,50.90
2019-04-14T03:42:54.298Z,50.00
2019-04-14T03:45:28.317Z,42.90
2019-04-14T03:48:00.589Z,41.80
2019-04-14T03:50:23.087Z,44.60
2019-04-14T03:55:15.165Z,46.90
2019-04-14T03:57:29.586Z,45.90
2019-04-14T03:59:58.496Z,54.90
2019-04-14T04:02:27.410Z,56.00
2019-04-14T04:04:57.634Z,55.60
2019-04-14T04:07:27.813Z,61.70
2019-04-14T04:09:58.387Z,66.00
2019-04-14T04:12:27.278Z,59.50
2019-04-14T04:14:56.064Z,63.30
2019-04-14T04:17:36.264Z,64.30
2019-04-14T04:20:11.562Z,68.30
2019-04-14T04:22:54.366Z,73.30
2019-04-14T04:25:31.111Z,70.00
2019-04-14T04:28:04.309Z,77.80
2019-04-14T04:30:34.697Z,72.30
2019-04-14T04:33:08.705Z,76.00
2019-04-14T04:35:39.341Z,73.60
2019-04-14T04:38:09.777Z,81.80
2019-04-14T04:40:39.638Z,93.00
2019-04-14T04:43:08.562Z,90.40
2019-04-14T04:45:37.324Z,92.20
2019-04-14T04:48:06.691Z,93.60
2019-04-14T04:50:36.727Z,93.50
2019-04-14T04:53:06.831Z,94.30
2019-04-14T04:55:35.692Z,96.30
2019-04-14T04:58:05.559Z,97.60
2019-04-14T05:00:35.297Z,98.50
2019-04-14T05:03:04.102Z,99.90
2019-04-14T05:06:09.247Z,98.60
2019-04-14T05:08:39.722Z,99.90
2019-04-14T05:11:10.387Z,99.90
2019-04-14T05:13:40.288Z,99.90
2019-04-14T05:16:10.690Z,99.90
2019-04-14T05:18:39.888Z,99.90
2019-04-14T05:21:08.688Z,99.90
2019-04-14T05:23:38.774Z,99.90
2019-04-14T05:26:07.627Z,99.90
2019-04-14T05:28:37.330Z,99.90
2019-04-14T05:31:07.495Z,99.90
2019-04-14T05:33:36.353Z,99.90
2019-04-14T05:36:06.254Z,99.90
2019-04-14T05:38:35.891Z,99.90
2019-04-14T05:41:06.855Z,99.90
2019-04-14T05:43:43.466Z,99.90
2019-04-14T05:46:07.636Z,99.90
2019-04-14T05:48:36.565Z,99.90
2019-04-14T05:51:06.395Z,99.90
2019-04-14T05:53:35.266Z,99.90
2019-04-14T05:56:04.067Z,99.90
2019-04-14T05:58:33.894Z,99.90
2019-04-14T06:01:02.833Z,99.90
2019-04-14T06:03:32.131Z,99.90
2019-04-14T06:06:00.948Z,99.90
2019-04-14T06:08:29.991Z,99.90
2019-04-14T06:10:58.814Z,99.90
2019-04-14T06:13:27.568Z,99.90
2019-04-14T06:15:56.372Z,99.90
2019-04-14T06:18:25.185Z,99.90
2019-04-14T06:20:53.943Z,99.90
2019-04-14T06:23:22.734Z,99.90
2019-04-14T06:25:51.570Z,99.90
2019-04-14T06:28:20.369Z,99.90
2019-04-14T06:31:08.966Z,99.90
2019-04-14T06:33:39.997Z,99.90
2019-04-14T06:36:10.392Z,99.90
2019-04-14T06:38:49.513Z,99.90
2019-04-14T06:41:19.270Z,99.90
2019-04-14T06:43:49.170Z,99.90
2019-04-14T06:46:18.172Z,99.90
2019-04-14T06:48:47.542Z,99.90
2019-04-14T06:51:16.312Z,99.90
2019-04-14T06:53:45.085Z,99.90
2019-04-14T06:56:13.841Z,99.90
2019-04-14T06:58:42.643Z,99.90
2019-04-14T07:01:11.497Z,99.90
2019-04-14T07:03:40.284Z,99.90
2019-04-14T07:06:09.148Z,99.90
2019-04-14T07:08:37.917Z,99.90
2019-04-14T07:11:06.699Z,99.90
2019-04-14T07:13:35.523Z,99.90
2019-04-14T07:16:04.336Z,99.90
2019-04-14T07:18:33.182Z,99.90
2019-04-14T07:21:02.036Z,99.90
2019-04-14T07:23:30.812Z,99.90
2019-04-14T07:25:59.613Z,99.90
2019-04-14T07:28:28.429Z,99.90
2019-04-14T07:31:14.910Z,99.90
2019-04-14T07:33:51.261Z,99.90
2019-04-14T07:36:37.677Z,99.90
2019-04-14T07:39:08.848Z,99.90
2019-04-14T07:41:39.237Z,99.90
2019-04-14T07:44:09.673Z,99.90
2019-04-14T07:46:51.790Z,99.90
2019-04-14T07:49:24.867Z,99.90
2019-04-14T07:52:07.312Z,99.90
2019-04-14T07:54:52.615Z,99.90
2019-04-14T07:57:39.113Z,99.90
2019-04-14T08:00:09.780Z,99.90
2019-04-14T08:02:43.108Z,99.90
2019-04-14T08:05:13.592Z,99.90
2019-04-14T08:07:43.245Z,99.90
2019-04-14T08:10:12.377Z,99.90
2019-04-14T08:12:41.216Z,99.90
2019-04-14T08:15:10.126Z,99.90
2019-04-14T08:17:38.897Z,99.90
2019-04-14T08:20:07.896Z,99.90
2019-04-14T08:22:36.644Z,99.90
2019-04-14T08:25:06.495Z,99.90
2019-04-14T08:27:35.231Z,99.90
2019-04-14T08:30:06.551Z,99.90
2019-04-14T08:32:35.349Z,99.90
2019-04-14T08:35:06.459Z,99.90
2019-04-14T08:37:35.285Z,99.90
2019-04-14T08:40:04.265Z,99.90
2019-04-14T08:42:37.641Z,99.90
2019-04-14T08:45:20.898Z,99.90
2019-04-14T08:47:54.042Z,99.90
2019-04-14T08:50:24.481Z,99.90
2019-04-14T08:52:57.601Z,99.90
2019-04-14T08:55:34.032Z,99.90
2019-04-14T08:58:13.133Z,99.90
2019-04-14T09:00:59.556Z,99.90
2019-04-14T09:03:48.107Z,99.90
2019-04-14T09:06:21.297Z,99.90
2019-04-14T09:08:57.552Z,99.90
2019-04-14T09:11:36.814Z,99.90
2019-04-14T09:14:05.581Z,99.90
2019-04-14T09:16:34.377Z,99.90
2019-04-14T09:19:07.760Z,99.90
2019-04-14T09:21:33.658Z,99.90
2019-04-14T09:24:02.423Z,99.90
2019-04-14T09:26:31.206Z,99.90
2019-04-14T09:28:59.982Z,99.90
2019-04-14T09:31:28.737Z,97.70
2019-04-14T09:33:57.524Z,99.90
2019-04-14T09:36:26.606Z,98.70
2019-04-14T09:38:55.990Z,90.20
2019-04-14T09:41:24.716Z,73.30
2019-04-14T09:43:53.506Z,86.50
2019-04-14T09:46:22.340Z,87.00
2019-04-14T09:48:51.113Z,91.30
2019-04-14T09:51:19.903Z,86.10
2019-04-14T09:53:48.645Z,80.70
2019-04-14T09:56:17.503Z,81.30
2019-04-14T09:58:46.329Z,70.00
2019-04-14T10:01:15.123Z,90.00
2019-04-14T10:03:43.981Z,73.40
2019-04-14T10:06:14.251Z,81.00
2019-04-14T10:08:43.148Z,90.70
2019-04-14T10:11:12.022Z,79.80
2019-04-14T10:13:53.527Z,87.20
2019-04-14T10:16:22.561Z,85.80
2019-04-14T10:18:51.422Z,85.10
2019-04-14T10:21:20.205Z,79.50
2019-04-14T10:23:49.080Z,87.90
2019-04-14T10:26:17.894Z,83.10
2019-04-14T10:28:46.669Z,88.90
2019-04-14T10:31:15.408Z,90.60
2019-04-14T10:33:44.174Z,88.50
2019-04-14T10:36:13.013Z,86.20
2019-04-14T10:38:41.826Z,83.20
2019-04-14T10:41:10.599Z,89.80
2019-04-14T10:43:39.551Z,89.90
2019-04-14T10:46:08.334Z,89.50
2019-04-14T10:48:37.140Z,90.60
2019-04-14T10:51:05.963Z,96.50
2019-04-14T10:53:34.748Z,95.80
2019-04-14T10:56:03.610Z,92.00
2019-04-14T10:58:32.379Z,88.00
2019-04-14T11:01:01.235Z,89.60
2019-04-14T11:03:30.032Z,87.90
2019-04-14T11:06:06.054Z,91.60
2019-04-14T11:08:34.816Z,85.10
2019-04-14T11:11:03.587Z,90.90
2019-04-14T11:13:32.567Z,90.80
2019-04-14T11:16:01.314Z,83.60
2019-04-14T11:18:30.080Z,81.30
2019-04-14T11:20:58.832Z,86.50
2019-04-14T11:23:27.618Z,90.60
2019-04-14T11:25:56.381Z,79.10
2019-04-14T11:28:25.175Z,71.00
2019-04-14T11:30:53.993Z,58.50
2019-04-14T11:33:24.819Z,66.10
2019-04-14T11:36:01.193Z,43.90
2019-04-14T11:38:31.583Z,49.50
2019-04-14T11:41:01.993Z,53.90
2019-04-14T11:43:30.811Z,36.10
2019-04-14T11:46:02.866Z,38.90
2019-04-14T11:48:30.379Z,19.60
2019-04-14T11:50:59.201Z,30.40
2019-04-14T11:53:27.996Z,19.50
2019-04-14T11:55:56.774Z,15.50
2019-04-14T11:58:25.658Z,1.00
2019-04-14T12:00:59.005Z,1.00
2019-04-14T12:03:38.401Z,1.00
2019-04-14T12:06:11.497Z,1.00
2019-04-14T12:08:45.707Z,1.00
2019-04-14T12:11:14.565Z,1.00
2019-04-14T12:13:43.344Z,1.00
2019-04-14T12:16:12.157Z,1.00
2019-04-14T12:18:40.925Z,1.00
2019-04-14T12:21:09.717Z,1.00
2019-04-14T12:23:38.461Z,1.00
2019-04-14T12:26:07.237Z,1.00
2019-04-14T12:28:36.180Z,1.00
2019-04-14T12:31:06.506Z,99.90
2019-04-14T12:33:35.381Z,1.00
2019-04-14T12:36:07.229Z,1.00
2019-04-14T12:38:36.110Z,99.90
2019-04-14T12:41:06.605Z,99.90
2019-04-14T12:43:39.927Z,99.90
2019-04-14T12:46:16.352Z,1.00
2019-04-14T12:48:49.440Z,99.90
2019-04-14T12:51:20.582Z,1.00
2019-04-14T12:53:49.511Z,1.00
2019-04-14T12:56:20.217Z,11.60
2019-04-14T12:58:50.625Z,99.90
2019-04-14T13:01:21.032Z,1.00
2019-04-14T13:03:49.856Z,99.90
2019-04-14T13:06:18.635Z,99.90
2019-04-14T13:08:47.690Z,1.00
2019-04-14T13:11:16.846Z,1.00
2019-04-14T13:13:45.668Z,1.00
2019-04-14T13:16:14.635Z,1.00
2019-04-14T13:18:43.493Z,1.00
2019-04-14T13:21:12.276Z,1.00
2019-04-14T13:23:41.044Z,99.90
2019-04-14T13:26:09.797Z,1.00
2019-04-14T13:28:38.570Z,99.90
2019-04-14T13:31:07.397Z,1.00
2019-04-14T13:33:36.181Z,1.00
2019-04-14T13:36:05.197Z,1.30
2019-04-14T13:38:34.071Z,1.00
2019-04-14T13:41:02.911Z,1.00
2019-04-14T13:43:31.744Z,1.00
2019-04-14T13:46:00.565Z,1.00
2019-04-14T13:48:29.439Z,99.90
2019-04-14T13:50:58.252Z,99.90
2019-04-14T13:53:27.004Z,28.70
2019-04-14T13:55:55.794Z,1.00
2019-04-14T13:58:24.586Z,1.00
2019-04-14T14:00:53.409Z,99.90
2019-04-14T14:03:22.237Z,90.20
2019-04-14T14:05:50.996Z,1.00
2019-04-14T14:08:19.834Z,1.00
2019-04-14T14:10:48.572Z,1.00
2019-04-14T14:13:34.175Z,1.00
2019-04-14T14:16:04.726Z,1.00
2019-04-14T14:18:52.932Z,1.00
2019-04-14T14:21:29.062Z,1.00
2019-04-14T14:23:59.440Z,99.90
2019-04-14T14:26:29.869Z,99.90
2019-04-14T14:28:58.633Z,99.90
2019-04-14T14:31:27.399Z,99.90
2019-04-14T14:33:56.272Z,99.90
2019-04-14T14:36:25.036Z,99.90
2019-04-14T14:38:53.836Z,99.90
2019-04-14T14:41:22.667Z,99.90
2019-04-14T14:43:51.449Z,99.90
2019-04-14T14:46:27.637Z,99.90
2019-04-14T14:49:00.963Z,99.90
2019-04-14T14:51:31.376Z,99.90
2019-04-14T14:54:00.190Z,99.90
2019-04-14T14:56:28.954Z,99.90
2019-04-14T14:58:58.114Z,1.00
2019-04-14T15:01:26.866Z,1.00
2019-04-14T15:03:55.665Z,1.00
2019-04-14T15:06:24.496Z,1.00
2019-04-14T15:08:53.319Z,1.00
2019-04-14T15:11:22.129Z,1.00
2019-04-14T15:13:50.980Z,1.00
2019-04-14T15:16:19.830Z,1.00
2019-04-14T15:18:48.584Z,1.00
2019-04-14T15:21:17.460Z,99.90
2019-04-14T15:23:46.387Z,99.90
2019-04-14T15:26:16.261Z,99.90
2019-04-14T15:28:45.040Z,99.90
2019-04-14T15:31:13.797Z,99.90
2019-04-14T15:33:42.585Z,99.90
2019-04-14T15:36:11.408Z,99.90
2019-04-14T15:38:40.155Z,99.90
2019-04-14T15:41:08.980Z,99.90
2019-04-14T15:43:37.809Z,99.90
2019-04-14T15:46:06.551Z,99.90
2019-04-14T15:48:35.306Z,99.90
2019-04-14T15:51:04.150Z,99.90
2019-04-14T15:53:38.058Z,99.90
2019-04-14T15:56:03.902Z,99.90
2019-04-14T15:58:37.033Z,99.90
2019-04-14T16:01:07.519Z,99.90
2019-04-14T16:03:40.684Z,99.90
2019-04-14T16:06:17.074Z,99.90
2019-04-14T16:08:50.462Z,99.90
2019-04-14T16:11:40.050Z,99.90
2019-04-14T16:14:26.631Z,99.90
2019-04-14T16:17:13.121Z,99.90
2019-04-14T16:19:49.482Z,99.90
2019-04-14T16:22:18.270Z,99.90
2019-04-14T16:24:47.488Z,99.90
2019-04-14T16:27:17.929Z,99.90
2019-04-14T16:29:57.198Z,99.90
2019-04-14T16:32:30.210Z,99.90
2019-04-14T16:35:00.702Z,99.90
2019-04-14T16:37:29.547Z,99.90
2019-04-14T16:39:58.315Z,99.90
2019-04-14T16:42:27.101Z,99.90
2019-04-14T16:44:55.906Z,99.90
2019-04-14T16:47:24.664Z,99.90
2019-04-14T16:49:53.457Z,99.90
2019-04-14T16:52:26.581Z,99.90
2019-04-14T16:54:59.671Z,99.90
2019-04-14T16:57:46.330Z,99.90
2019-04-14T17:00:16.901Z,99.90
2019-04-14T17:02:45.664Z,99.90
2019-04-14T17:05:14.534Z,99.90
2019-04-14T17:07:43.357Z,99.90
2019-04-14T17:10:12.112Z,99.90
2019-04-14T17:12:40.868Z,99.90
2019-04-14T17:15:11.443Z,99.90
2019-04-14T17:17:57.946Z,99.90
2019-04-14T17:20:44.596Z,99.90
2019-04-14T17:23:31.004Z,99.90
2019-04-14T17:26:16.333Z,99.90
2019-04-14T17:28:49.708Z,99.90
2019-04-14T17:31:36.208Z,99.90
2019-04-14T17:34:15.733Z,99.90
2019-04-14T17:36:54.654Z,99.90
2019-04-14T17:39:27.535Z,99.90
2019-04-14T17:42:14.021Z,99.90
2019-04-14T17:44:47.189Z,99.90
2019-04-14T17:47:33.908Z,99.90
2019-04-14T17:50:13.264Z,99.90
2019-04-14T17:52:43.721Z,99.90
2019-04-14T17:55:30.637Z,99.90
2019-04-14T17:58:04.389Z,99.90
2019-04-14T18:00:43.864Z,99.90
2019-04-14T18:03:27.080Z,99.90
2019-04-14T18:05:57.825Z,99.90
2019-04-14T18:08:28.530Z,99.90
2019-04-14T18:11:13.915Z,99.90
2019-04-14T18:14:00.356Z,99.90
2019-04-14T18:16:33.500Z,99.90
2019-04-14T18:19:15.945Z,99.90
2019-04-14T18:21:44.743Z,99.90
2019-04-14T18:24:13.476Z,99.90
2019-04-14T18:26:42.347Z,99.90
2019-04-14T18:29:30.711Z,1.00
2019-04-14T18:32:04.136Z,1.00
2019-04-14T18:34:34.545Z,1.00
2019-04-14T18:37:23.077Z,1.00
2019-04-14T18:40:05.658Z,1.00
2019-04-14T18:42:36.242Z,1.00
2019-04-14T18:45:08.494Z,1.00
2019-04-14T18:47:38.952Z,1.00
2019-04-14T18:50:15.327Z,1.00
2019-04-14T18:52:51.689Z,1.00
2019-04-14T18:55:22.154Z,71.80
2019-04-14T18:58:08.857Z,44.50
2019-04-14T19:00:45.599Z,99.90
2019-04-14T19:03:14.369Z,63.60
2019-04-14T19:05:43.150Z,99.90
2019-04-14T19:08:11.900Z,99.90
2019-04-14T19:10:42.327Z,99.90
2019-04-14T19:13:24.452Z,99.90
2019-04-14T19:15:54.865Z,99.90
2019-04-14T19:18:25.881Z,99.90
2019-04-14T19:20:59.079Z,99.90
2019-04-14T19:23:27.925Z,99.90
2019-04-14T19:25:57.450Z,99.90
2019-04-14T19:28:26.243Z,99.90
2019-04-14T19:30:55.022Z,93.90
2019-04-14T19:33:23.780Z,99.90
2019-04-14T19:35:52.544Z,99.90
2019-04-14T19:38:21.319Z,99.90
2019-04-14T19:40:50.053Z,99.90
2019-04-14T19:43:24.094Z,99.90
2019-04-14T19:45:49.380Z,99.90
2019-04-14T19:48:18.149Z,99.90
2019-04-14T19:50:46.920Z,99.90
2019-04-14T19:53:15.681Z,99.90
2019-04-14T19:55:44.492Z,99.90
2019-04-14T19:58:13.251Z,99.90
2019-04-14T20:00:42.465Z,99.90
2019-04-14T20:03:11.301Z,99.90
2019-04-14T20:05:40.077Z,99.90
2019-04-14T20:08:08.880Z,99.90
2019-04-14T20:10:37.660Z,66.60
2019-04-14T20:13:06.520Z,99.90
2019-04-14T20:15:37.150Z,68.40
2019-04-14T20:18:10.570Z,99.90
2019-04-14T20:20:46.661Z,68.10
2019-04-14T20:23:17.187Z,89.60
2019-04-14T20:26:03.712Z,99.90
2019-04-14T20:28:36.980Z,5.10
2019-04-14T20:31:22.580Z,1.00
2019-04-14T20:33:51.519Z,1.00
2019-04-14T20:36:20.388Z,1.00
2019-04-14T20:38:49.350Z,1.00
2019-04-14T20:41:18.120Z,1.00
2019-04-14T20:43:46.923Z,1.00
2019-04-14T20:46:15.756Z,1.00
2019-04-14T20:48:44.588Z,1.00
2019-04-14T20:51:13.410Z,1.00
2019-04-14T20:53:42.295Z,1.00
2019-04-14T20:56:11.096Z,1.00
2019-04-14T20:58:39.853Z,1.00
2019-04-14T21:01:10.248Z,1.00
2019-04-14T21:03:57.237Z,1.00
2019-04-14T21:06:27.785Z,1.00
2019-04-14T21:09:10.056Z,1.00
2019-04-14T21:11:43.098Z,1.00
2019-04-14T21:14:13.471Z,1.00
2019-04-14T21:16:46.557Z,1.00
2019-04-14T21:19:19.922Z,1.00
2019-04-14T21:21:50.306Z,1.00
2019-04-14T21:24:20.707Z,1.00
2019-04-14T21:26:59.861Z,1.00
2019-04-14T21:29:42.130Z,1.00
2019-04-14T21:32:15.590Z,1.00
2019-04-14T21:34:46.001Z,1.00
2019-04-14T21:37:19.658Z,1.00
2019-04-14T21:39:55.711Z,1.00
2019-04-14T21:42:24.516Z,1.00
2019-04-14T21:44:53.290Z,1.00
2019-04-14T21:47:22.058Z,1.00
2019-04-14T21:49:50.764Z,1.00
2019-04-14T21:52:24.122Z,1.00
2019-04-14T21:54:53.231Z,1.00
2019-04-14T21:57:23.616Z,1.00
2019-04-14T22:00:09.215Z,1.00
2019-04-14T22:02:55.760Z,1.00
2019-04-14T22:05:42.209Z,1.00
2019-04-14T22:08:15.517Z,1.00
2019-04-14T22:10:48.824Z,1.00
2019-04-14T22:13:17.644Z,1.00
2019-04-14T22:15:46.435Z,1.00
2019-04-14T22:18:15.469Z,1.00
2019-04-14T22:20:44.208Z,1.00
2019-04-14T22:23:13.109Z,1.00
2019-04-14T22:25:41.872Z,1.00
2019-04-14T22:28:10.621Z,1.00
2019-04-14T22:30:39.551Z,1.00
2019-04-14T22:33:08.313Z,1.00
2019-04-14T22:35:37.085Z,1.00
2019-04-14T22:38:05.954Z,1.00
2019-04-14T22:40:34.967Z,1.00
2019-04-14T22:43:03.678Z,1.00
2019-04-14T22:45:32.416Z,1.00
2019-04-14T22:48:01.213Z,1.00
2019-04-14T22:50:29.977Z,1.00
2019-04-14T22:52:58.742Z,1.00
2019-04-14T22:55:27.579Z,1.00
2019-04-14T22:57:56.368Z,1.00
2019-04-14T23:00:26.934Z,1.00
2019-04-14T23:03:06.231Z,1.00
2019-04-14T23:05:48.909Z,1.00
2019-04-14T23:08:19.284Z,1.00
2019-04-14T23:10:58.709Z,1.00
2019-04-14T23:13:34.850Z,1.00
2019-04-14T23:16:14.246Z,1.00
2019-04-14T23:18:50.575Z,1.00
2019-04-14T23:21:20.925Z,1.00
2019-04-14T23:24:07.445Z,1.00
2019-04-14T23:26:36.177Z,1.00
2019-04-14T23:29:04.982Z,1.00
2019-04-14T23:31:33.817Z,1.00
2019-04-14T23:34:02.550Z,1.00
2019-04-14T23:36:31.314Z,1.00
2019-04-14T23:39:00.069Z,1.00
2019-04-14T23:41:28.797Z,1.00
2019-04-14T23:43:57.571Z,1.00
2019-04-14T23:46:26.329Z,1.00
2019-04-14T23:48:55.037Z,1.00
2019-04-14T23:51:23.814Z,1.00
2019-04-14T23:53:52.570Z,1.00
2019-04-14T23:56:21.398Z,1.00
2019-04-14T23:58:50.141Z,1.00
